createdAt,value
2023-04-15T00:00:00.128Z,2.70
2023-04-15T00:03:03.563Z,2.80
2023-04-15T00:06:07.048Z,2.50
2023-04-15T00:09:11.582Z,2.50
2023-04-15T00:12:14.714Z,2.40
2023-04-15T00:15:18.075Z,2.40
2023-04-15T00:18:21.088Z,2.33
2023-04-15T00:21:24.128Z,2.43
2023-04-15T00:24:29.438Z,2.90
2023-04-15T00:27:32.561Z,2.23
2023-04-15T00:30:35.665Z,2.57
2023-04-15T00:33:38.812Z,2.30
2023-04-15T00:36:41.866Z,2.07
2023-04-15T00:39:46.429Z,2.53
2023-04-15T00:42:49.454Z,2.70
2023-04-15T00:45:54.860Z,2.30
2023-04-15T00:48:58.117Z,2.63
2023-04-15T00:52:01.220Z,2.43
2023-04-15T00:55:06.540Z,2.30
2023-04-15T00:58:09.611Z,2.20
2023-04-15T01:01:12.786Z,2.53
2023-04-15T01:04:17.210Z,2.43
2023-04-15T01:07:20.376Z,1.90
2023-04-15T01:10:25.053Z,2.13
2023-04-15T01:13:28.712Z,2.00
2023-04-15T01:16:32.571Z,2.10
2023-04-15T01:19:35.856Z,2.47
2023-04-15T01:22:39.569Z,2.20
2023-04-15T01:25:45.553Z,2.00
2023-04-15T01:28:49.110Z,2.30
2023-04-15T01:31:53.287Z,2.20
2023-04-15T01:34:56.699Z,2.00
2023-04-15T01:38:05.393Z,2.07
2023-04-15T01:41:09.953Z,2.20
2023-04-15T01:44:13.029Z,2.00
2023-04-15T01:47:16.127Z,2.13
2023-04-15T01:50:20.556Z,2.20
2023-04-15T01:53:23.576Z,2.30
2023-04-15T01:56:28.146Z,2.40
2023-04-15T01:59:32.318Z,2.40
2023-04-15T02:02:36.128Z,2.60
2023-04-15T02:05:39.321Z,2.50
2023-04-15T02:08:42.402Z,2.70
2023-04-15T02:11:47.141Z,2.50
2023-04-15T02:14:50.199Z,3.00
2023-04-15T02:17:55.471Z,2.97
2023-04-15T02:20:59.068Z,3.07
2023-04-15T02:24:02.393Z,3.47
2023-04-15T02:27:06.911Z,3.50
2023-04-15T02:30:10.426Z,3.43
2023-04-15T02:33:13.492Z,3.80
2023-04-15T02:36:16.643Z,4.40
2023-04-15T02:39:20.240Z,3.87
2023-04-15T02:42:27.772Z,3.87
2023-04-15T02:45:30.804Z,3.87
2023-04-15T02:48:33.957Z,4.20
2023-04-15T02:51:37.028Z,4.10
2023-04-15T02:54:40.128Z,4.83
2023-04-15T02:57:44.586Z,4.27
2023-04-15T03:00:47.638Z,4.20
2023-04-15T03:03:51.007Z,4.87
2023-04-15T03:06:54.535Z,4.90
2023-04-15T03:09:57.961Z,4.40
2023-04-15T03:13:02.318Z,4.97
2023-04-15T03:16:05.810Z,4.47
2023-04-15T03:19:09.105Z,4.43
2023-04-15T03:22:12.113Z,4.30
2023-04-15T03:25:15.246Z,4.67
2023-04-15T03:28:19.689Z,4.80
2023-04-15T03:31:22.907Z,4.90
2023-04-15T03:34:26.038Z,5.80
2023-04-15T03:37:29.085Z,4.83
2023-04-15T03:40:32.166Z,5.13
2023-04-15T03:43:36.664Z,4.77
2023-04-15T03:46:39.711Z,4.60
2023-04-15T03:49:42.835Z,4.47
2023-04-15T03:52:46.026Z,4.93
2023-04-15T03:55:49.047Z,5.10
2023-04-15T03:58:53.502Z,4.83
2023-04-15T04:01:56.756Z,4.90
2023-04-15T04:04:59.836Z,5.10
2023-04-15T04:08:02.858Z,4.40
2023-04-15T04:11:06.668Z,3.93
2023-04-15T04:14:11.086Z,4.53
2023-04-15T04:17:14.185Z,4.30
2023-04-15T04:20:17.371Z,4.70
2023-04-15T04:23:20.798Z,4.37
2023-04-15T04:26:24.065Z,4.37
2023-04-15T04:29:28.489Z,4.37
2023-04-15T04:32:31.637Z,4.00
2023-04-15T04:35:37.756Z,4.63
2023-04-15T04:38:40.894Z,4.50
2023-04-15T04:41:44.021Z,4.47
2023-04-15T04:44:48.516Z,4.20
2023-04-15T04:47:51.618Z,3.90
2023-04-15T04:50:55.033Z,4.03
2023-04-15T04:53:58.075Z,4.30
2023-04-15T04:57:01.810Z,4.00
2023-04-15T05:00:08.884Z,3.70
2023-04-15T05:03:12.416Z,4.00
2023-04-15T05:06:15.794Z,3.90
2023-04-15T05:09:19.190Z,4.67
2023-04-15T05:12:22.285Z,4.07
2023-04-15T05:15:26.759Z,4.30
2023-04-15T05:18:29.850Z,3.90
2023-04-15T05:21:33.048Z,4.77
2023-04-15T05:24:36.104Z,4.70
2023-04-15T05:27:39.280Z,4.70
2023-04-15T05:30:44.075Z,4.70
2023-04-15T05:33:47.334Z,4.87
2023-04-15T05:36:50.643Z,4.57
2023-04-15T05:39:53.900Z,4.53
2023-04-15T05:42:56.954Z,4.87
2023-04-15T05:46:01.732Z,4.17
2023-04-15T05:49:04.827Z,4.70
2023-04-15T05:52:08.185Z,5.00
2023-04-15T05:55:11.944Z,5.00
2023-04-15T05:58:15.038Z,4.67
2023-04-15T06:01:19.769Z,4.50
2023-04-15T06:04:23.078Z,5.67
2023-04-15T06:07:26.360Z,5.03
2023-04-15T06:10:29.909Z,4.93
2023-04-15T06:13:33.403Z,5.53
2023-04-15T06:16:38.022Z,4.60
2023-04-15T06:19:41.166Z,4.50
2023-04-15T06:22:44.322Z,4.20
2023-04-15T06:25:47.351Z,4.50
2023-04-15T06:28:50.733Z,3.60
2023-04-15T06:31:56.540Z,3.77
2023-04-15T06:34:59.650Z,3.60
2023-04-15T06:38:02.747Z,3.40
2023-04-15T06:41:06.032Z,2.90
2023-04-15T06:44:09.103Z,3.00
2023-04-15T06:47:14.810Z,2.83
2023-04-15T06:50:17.839Z,3.37
2023-04-15T06:53:20.943Z,3.07
2023-04-15T06:56:23.984Z,4.10
2023-04-15T06:59:27.386Z,3.20
2023-04-15T07:02:31.894Z,3.57
2023-04-15T07:05:34.992Z,2.90
2023-04-15T07:08:38.040Z,3.20
2023-04-15T07:11:41.057Z,2.80
2023-04-15T07:14:44.688Z,3.20
2023-04-15T07:17:49.126Z,3.60
2023-04-15T07:20:52.308Z,3.13
2023-04-15T07:23:55.408Z,3.70
2023-04-15T07:27:00.843Z,3.40
2023-04-15T07:30:04.567Z,3.33
2023-04-15T07:33:08.960Z,3.50
2023-04-15T07:36:12.050Z,3.50
2023-04-15T07:39:15.131Z,3.37
2023-04-15T07:42:18.265Z,3.50
2023-04-15T07:45:21.810Z,2.90
2023-04-15T07:48:26.654Z,3.30
2023-04-15T07:51:29.805Z,2.83
2023-04-15T07:54:32.837Z,2.60
2023-04-15T07:57:36.263Z,4.83
2023-04-15T08:00:39.548Z,3.00
2023-04-15T08:03:44.195Z,3.40
2023-04-15T08:06:49.935Z,3.30
2023-04-15T08:09:53.049Z,2.80
2023-04-15T08:12:56.537Z,4.07
2023-04-15T08:16:16.549Z,3.73
2023-04-15T08:19:21.370Z,3.57
2023-04-15T08:22:25.101Z,3.70
2023-04-15T08:25:28.418Z,3.40
2023-04-15T08:28:31.610Z,3.47
2023-04-15T08:31:34.886Z,3.20
2023-04-15T08:34:39.366Z,3.50
2023-04-15T08:37:42.895Z,2.87
2023-04-15T08:40:47.174Z,3.50
2023-04-15T08:43:55.032Z,3.90
2023-04-15T08:46:58.354Z,4.10
2023-04-15T08:50:05.717Z,4.00
2023-04-15T08:53:09.011Z,4.40
2023-04-15T08:59:19.012Z,3.70
2023-04-15T09:02:23.352Z,4.10
2023-04-15T09:05:27.930Z,4.60
2023-04-15T09:08:31.161Z,4.33
2023-04-15T09:11:34.265Z,4.30
2023-04-15T09:14:37.375Z,5.80
2023-04-15T09:17:44.283Z,5.70
2023-04-15T09:20:48.827Z,5.77
2023-04-15T09:23:59.862Z,5.33
2023-04-15T09:27:03.748Z,6.07
2023-04-15T09:30:10.600Z,5.10
2023-04-15T09:33:16.586Z,5.50
2023-04-15T09:36:21.075Z,4.60
2023-04-15T09:39:24.408Z,4.10
2023-04-15T09:42:28.794Z,2.63
2023-04-15T09:45:32.629Z,2.00
2023-04-15T09:48:35.744Z,1.70
2023-04-15T09:51:42.182Z,1.80
2023-04-15T09:54:46.909Z,1.70
2023-04-15T09:57:50.050Z,2.37
2023-04-15T10:00:54.529Z,2.77
2023-04-15T10:03:59.552Z,2.23
2023-04-15T10:07:06.246Z,2.20
2023-04-15T10:10:10.266Z,1.70
2023-04-15T10:13:15.331Z,1.83
2023-04-15T10:16:21.909Z,2.70
2023-04-15T10:19:28.953Z,2.67
2023-04-15T10:22:34.145Z,2.17
2023-04-15T10:25:38.134Z,2.77
2023-04-15T10:28:41.158Z,2.20
2023-04-15T10:31:45.066Z,2.67
2023-04-15T10:34:49.824Z,2.10
2023-04-15T10:37:54.366Z,2.13
2023-04-15T10:41:14.430Z,1.90
2023-04-15T10:44:17.574Z,2.53
2023-04-15T10:47:22.175Z,2.70
2023-04-15T10:50:28.713Z,1.87
2023-04-15T10:53:33.358Z,2.40
2023-04-15T10:56:36.483Z,2.87
2023-04-15T11:00:00.406Z,1.80
2023-04-15T11:03:08.183Z,2.30
2023-04-15T11:06:11.470Z,1.90
2023-04-15T11:09:33.454Z,2.40
2023-04-15T11:12:37.151Z,2.40
2023-04-15T11:15:41.705Z,2.67
2023-04-15T11:18:55.939Z,3.30
2023-04-15T11:21:59.050Z,3.10
2023-04-15T11:25:04.119Z,3.10
2023-04-15T11:28:08.037Z,3.43
2023-04-15T11:31:14.510Z,2.37
2023-04-15T11:34:24.290Z,2.60
2023-04-15T11:37:31.795Z,2.20
2023-04-15T11:40:36.900Z,2.03
2023-04-15T11:43:40.063Z,1.60
2023-04-15T11:46:44.467Z,1.70
2023-04-15T11:49:48.709Z,2.07
2023-04-15T11:52:55.326Z,2.87
2023-04-15T11:55:59.741Z,3.07
2023-04-15T11:59:03.086Z,3.70
2023-04-15T12:02:13.588Z,3.47
2023-04-15T12:05:16.947Z,3.90
2023-04-15T12:08:20.026Z,3.80
2023-04-15T12:11:30.657Z,3.83
2023-04-15T12:14:34.346Z,4.37
2023-04-15T12:17:51.740Z,3.80
2023-04-15T12:20:55.596Z,4.23
2023-04-15T12:23:59.401Z,3.87
2023-04-15T12:27:08.154Z,3.80
2023-04-15T12:30:11.936Z,3.63
2023-04-15T12:33:15.011Z,3.47
2023-04-15T12:36:18.214Z,3.13
2023-04-15T12:39:23.912Z,3.30
2023-04-15T12:42:28.317Z,2.30
2023-04-15T12:45:31.766Z,2.30
2023-04-15T12:48:34.841Z,2.10
2023-04-15T12:51:37.901Z,1.83
2023-04-15T12:54:41.235Z,1.87
2023-04-15T12:57:45.691Z,1.70
2023-04-15T13:00:49.023Z,1.57
2023-04-15T13:03:52.232Z,1.67
2023-04-15T13:06:56.278Z,1.70
2023-04-15T13:09:59.321Z,1.77
2023-04-15T13:13:03.878Z,1.47
2023-04-15T13:16:07.647Z,1.10
2023-04-15T13:19:10.774Z,0.70
2023-04-15T13:22:15.017Z,0.97
2023-04-15T13:25:18.005Z,0.70
2023-04-15T13:28:22.515Z,1.10
2023-04-15T13:31:25.716Z,1.20
2023-04-15T13:34:28.799Z,1.00
2023-04-15T13:37:32.099Z,1.00
2023-04-15T13:40:35.102Z,0.87
2023-04-15T13:43:39.497Z,1.10
2023-04-15T13:46:42.893Z,1.33
2023-04-15T13:49:45.980Z,1.30
2023-04-15T13:52:49.024Z,1.27
2023-04-15T13:55:52.036Z,1.20
2023-04-15T13:58:59.041Z,1.70
2023-04-15T14:02:02.218Z,1.47
2023-04-15T14:05:05.958Z,1.50
2023-04-15T14:08:09.014Z,1.60
2023-04-15T14:11:12.182Z,1.50
2023-04-15T14:14:16.613Z,1.50
2023-04-15T14:17:19.721Z,1.80
2023-04-15T14:20:22.712Z,2.40
2023-04-15T14:23:25.784Z,1.40
2023-04-15T14:26:28.855Z,1.23
2023-04-15T14:29:33.255Z,1.00
2023-04-15T14:32:36.366Z,1.73
2023-04-15T14:35:39.459Z,1.17
2023-04-15T14:38:42.525Z,1.10
2023-04-15T14:41:45.509Z,0.90
2023-04-15T14:44:50.082Z,1.17
2023-04-15T14:47:53.389Z,0.63
2023-04-15T14:50:56.516Z,1.03
2023-04-15T14:53:59.815Z,0.80
2023-04-15T14:57:04.656Z,1.00
2023-04-15T15:00:16.042Z,0.67
2023-04-15T15:03:20.226Z,0.80
2023-04-15T15:06:25.431Z,0.80
2023-04-15T15:09:29.133Z,1.00
2023-04-15T15:12:33.684Z,1.23
2023-04-15T15:15:39.559Z,1.10
2023-04-15T15:18:42.708Z,1.10
2023-04-15T15:21:45.684Z,0.90
2023-04-15T15:24:48.678Z,0.90
2023-04-15T15:27:51.866Z,1.07
2023-04-15T15:30:56.458Z,1.17
2023-04-15T15:33:59.677Z,1.00
2023-04-15T15:37:02.740Z,1.03
2023-04-15T15:40:06.730Z,0.83
2023-04-15T15:43:10.024Z,1.13
2023-04-15T15:46:14.547Z,0.90
2023-04-15T15:49:17.741Z,1.10
2023-04-15T15:52:20.912Z,0.93
2023-04-15T15:55:25.325Z,1.20
2023-04-15T15:58:28.467Z,1.13
2023-04-15T16:01:32.979Z,1.50
2023-04-15T16:04:36.836Z,1.33
2023-04-15T16:07:40.105Z,1.30
2023-04-15T16:10:43.440Z,2.23
2023-04-15T16:13:46.550Z,1.80
2023-04-15T16:16:51.116Z,1.30
2023-04-15T16:19:58.683Z,2.00
2023-04-15T16:23:13.122Z,1.67
2023-04-15T16:26:16.415Z,1.87
2023-04-15T16:29:22.230Z,1.80
2023-04-15T16:32:27.424Z,2.20
2023-04-15T16:35:31.324Z,2.03
2023-04-15T16:38:35.962Z,2.70
2023-04-15T16:41:39.376Z,2.20
2023-04-15T16:44:42.768Z,2.47
2023-04-15T16:47:47.324Z,2.20
2023-04-15T16:50:50.461Z,2.57
2023-04-15T16:53:53.525Z,2.00
2023-04-15T16:56:56.553Z,2.03
2023-04-15T16:59:59.563Z,2.33
2023-04-15T17:03:04.421Z,2.17
2023-04-15T17:06:07.920Z,2.17
2023-04-15T17:09:11.097Z,1.97
2023-04-15T17:12:14.978Z,2.37
2023-04-15T17:15:18.272Z,1.73
2023-04-15T17:18:22.732Z,2.50
2023-04-15T17:21:27.581Z,2.30
2023-04-15T17:24:30.693Z,2.50
2023-04-15T17:27:33.711Z,2.80
2023-04-15T17:30:36.939Z,3.70
2023-04-15T17:34:02.036Z,5.03
2023-04-15T17:37:05.034Z,4.90
2023-04-15T17:40:09.116Z,5.00
2023-04-15T17:43:12.125Z,4.60
2023-04-15T17:46:15.499Z,5.10
2023-04-15T17:49:20.053Z,5.20
2023-04-15T17:52:23.151Z,4.70
2023-04-15T17:55:26.363Z,4.90
2023-04-15T17:58:29.521Z,3.80
2023-04-15T18:01:32.650Z,4.40
2023-04-15T18:04:37.207Z,4.07
2023-04-15T18:07:40.383Z,4.03
2023-04-15T18:10:43.548Z,3.63
2023-04-15T18:13:46.601Z,3.53
2023-04-15T18:16:50.046Z,3.80
2023-04-15T18:19:54.513Z,4.03
2023-04-15T18:22:57.537Z,3.50
2023-04-15T18:26:00.683Z,3.77
2023-04-15T18:29:03.806Z,3.23
2023-04-15T18:32:06.915Z,3.57
2023-04-15T18:35:11.877Z,3.00
2023-04-15T18:38:14.997Z,2.90
2023-04-15T18:41:18.033Z,3.00
2023-04-15T18:44:21.249Z,3.43
2023-04-15T18:47:26.862Z,2.90
2023-04-15T18:50:31.581Z,3.07
2023-04-15T18:53:34.576Z,3.17
2023-04-15T18:56:37.686Z,3.30
2023-04-15T18:59:40.744Z,3.43
2023-04-15T19:02:44.207Z,3.03
2023-04-15T19:05:48.857Z,3.37
2023-04-15T19:08:53.021Z,2.70
2023-04-15T19:11:57.031Z,3.60
2023-04-15T19:15:00.114Z,3.80
2023-04-15T19:18:05.429Z,4.03
2023-04-15T19:21:09.998Z,6.00
2023-04-15T19:24:12.990Z,7.87
2023-04-15T19:27:16.123Z,7.47
2023-04-15T19:30:19.189Z,7.80
2023-04-15T19:33:22.261Z,7.10
2023-04-15T19:36:29.347Z,8.73
2023-04-15T19:39:32.387Z,7.80
2023-04-15T19:42:35.556Z,8.40
2023-04-15T19:45:38.743Z,7.17
2023-04-15T19:48:41.916Z,8.07
2023-04-15T19:51:46.370Z,8.50
2023-04-15T19:54:49.428Z,6.77
2023-04-15T19:57:52.529Z,7.40
2023-04-15T20:00:55.743Z,7.20
2023-04-15T20:03:59.037Z,7.00
2023-04-15T20:10:39.012Z,6.67
2023-04-15T20:13:42.002Z,6.90
2023-04-15T20:16:45.090Z,7.13
2023-04-15T20:19:48.143Z,6.40
2023-04-15T20:22:53.233Z,6.27
2023-04-15T20:25:56.815Z,6.70
2023-04-15T20:29:00.621Z,7.03
2023-04-15T20:32:03.683Z,7.10
2023-04-15T20:35:08.073Z,6.80
2023-04-15T20:38:12.853Z,6.60
2023-04-15T20:41:15.922Z,7.10
2023-04-15T20:44:18.993Z,7.40
2023-04-15T20:47:22.089Z,7.77
2023-04-15T20:50:25.458Z,7.83
2023-04-15T20:53:29.928Z,7.40
2023-04-15T20:56:32.900Z,6.70
2023-04-15T20:59:36.099Z,7.73
2023-04-15T21:02:39.442Z,7.47
2023-04-15T21:05:42.683Z,7.70
2023-04-15T21:08:47.141Z,7.57
2023-04-15T21:14:56.664Z,7.90
2023-04-15T21:17:59.716Z,7.93
2023-04-15T21:21:03.834Z,9.70
2023-04-15T21:24:08.885Z,15.70
2023-04-15T21:27:11.918Z,17.50
2023-04-15T21:30:15.074Z,15.07
2023-04-15T21:33:20.415Z,16.07
2023-04-15T21:36:23.424Z,18.33
2023-04-15T21:39:27.911Z,16.47
2023-04-15T21:42:31.162Z,17.83
2023-04-15T21:45:34.307Z,19.00
2023-04-15T21:48:37.481Z,19.40
2023-04-15T21:51:40.721Z,23.30
2023-04-15T21:54:45.117Z,24.10
2023-04-15T21:57:48.144Z,21.17
2023-04-15T22:00:51.412Z,21.50
2023-04-15T22:03:54.728Z,28.30
2023-04-15T22:07:01.682Z,26.97
2023-04-15T22:10:06.933Z,25.47
2023-04-15T22:13:11.166Z,31.70
2023-04-15T22:16:14.222Z,31.50
2023-04-15T22:19:17.309Z,44.80
2023-04-15T22:22:20.665Z,27.73
2023-04-15T22:25:31.689Z,30.37
2023-04-15T22:28:34.803Z,32.53
2023-04-15T22:31:38.028Z,29.17
2023-04-15T22:34:41.086Z,44.83
2023-04-15T22:37:44.105Z,50.53
2023-04-15T22:40:48.618Z,30.77
2023-04-15T22:43:51.680Z,31.17
2023-04-15T22:46:54.673Z,38.17
2023-04-15T22:49:57.635Z,33.00
2023-04-15T22:53:00.658Z,34.40
2023-04-15T22:56:05.204Z,35.10
2023-04-15T22:59:08.573Z,33.67
2023-04-15T23:02:12.169Z,34.17
2023-04-15T23:05:15.289Z,42.07
2023-04-15T23:08:18.404Z,34.90
2023-04-15T23:11:22.853Z,36.13
2023-04-15T23:14:28.092Z,33.80
2023-04-15T23:17:31.091Z,34.87
2023-04-15T23:20:34.317Z,35.40
2023-04-15T23:23:37.335Z,35.93
2023-04-15T23:26:41.983Z,36.07
2023-04-15T23:29:45.079Z,36.53
2023-04-15T23:32:48.184Z,37.70
2023-04-15T23:35:51.523Z,34.77
2023-04-15T23:38:54.527Z,37.33
2023-04-15T23:41:58.915Z,37.43
2023-04-15T23:45:01.935Z,36.93
2023-04-15T23:48:05.019Z,37.77
2023-04-15T23:51:08.099Z,38.10
2023-04-15T23:54:11.109Z,38.10
2023-04-15T23:57:15.579Z,38.00
